sensor_id;sensor_type;location;lat;lon;timestamp;temperature;humidity
52899;DHT22;38763;53.096;6.062;2023-04-08T00:01:53;5.40;99.90
52899;DHT22;38763;53.096;6.062;2023-04-08T00:04:19;5.40;99.90
52899;DHT22;38763;53.096;6.062;2023-04-08T00:06:45;5.40;99.90
52899;DHT22;38763;53.096;6.062;2023-04-08T00:09:10;5.40;99.90
52899;DHT22;38763;53.096;6.062;2023-04-08T00:11:36;5.40;99.90
52899;DHT22;38763;53.096;6.062;2023-04-08T00:14:02;5.40;99.90
52899;DHT22;38763;53.096;6.062;2023-04-08T00:16:29;5.30;99.90
52899;DHT22;38763;53.096;6.062;2023-04-08T00:18:55;5.30;99.90
52899;DHT22;38763;53.096;6.062;2023-04-08T00:21:21;5.30;99.90
52899;DHT22;38763;53.096;6.062;2023-04-08T00:23:48;5.20;99.90
52899;DHT22;38763;53.096;6.062;2023-04-08T00:26:13;5.20;99.90
52899;DHT22;38763;53.096;6.062;2023-04-08T00:28:40;5.20;99.90
52899;DHT22;38763;53.096;6.062;2023-04-08T00:31:07;5.10;99.90
52899;DHT22;38763;53.096;6.062;2023-04-08T00:33:33;5.10;99.90
52899;DHT22;38763;53.096;6.062;2023-04-08T00:35:58;5.10;99.90
52899;DHT22;38763;53.096;6.062;2023-04-08T00:38:24;5.10;99.90
52899;DHT22;38763;53.096;6.062;2023-04-08T00:40:49;5.10;99.90
52899;DHT22;38763;53.096;6.062;2023-04-08T00:43:15;5.00;99.90
52899;DHT22;38763;53.096;6.062;2023-04-08T00:45:41;5.00;99.90
52899;DHT22;38763;53.096;6.062;2023-04-08T00:48:07;4.90;99.90
52899;DHT22;38763;53.096;6.062;2023-04-08T00:50:32;4.90;99.90
52899;DHT22;38763;53.096;6.062;2023-04-08T00:52:58;4.90;99.90
52899;DHT22;38763;53.096;6.062;2023-04-08T00:55:23;4.80;99.90
52899;DHT22;38763;53.096;6.062;2023-04-08T00:57:49;4.80;99.90
52899;DHT22;38763;53.096;6.062;2023-04-08T01:00:15;4.80;99.90
52899;DHT22;38763;53.096;6.062;2023-04-08T01:03:08;4.80;99.90
52899;DHT22;38763;53.096;6.062;2023-04-08T01:08:29;4.70;99.90
52899;DHT22;38763;53.096;6.062;2023-04-08T01:10:59;4.70;99.90
52899;DHT22;38763;53.096;6.062;2023-04-08T01:13:28;4.70;99.90
52899;DHT22;38763;53.096;6.062;2023-04-08T01:15:55;4.70;99.90
52899;DHT22;38763;53.096;6.062;2023-04-08T01:18:21;4.60;99.90
52899;DHT22;38763;53.096;6.062;2023-04-08T01:20:49;4.60;99.90
52899;DHT22;38763;53.096;6.062;2023-04-08T01:24:33;4.60;99.90
52899;DHT22;38763;53.096;6.062;2023-04-08T01:26:28;4.50;99.90
52899;DHT22;38763;53.096;6.062;2023-04-08T01:28:56;4.60;99.90
52899;DHT22;38763;53.096;6.062;2023-04-08T01:31:24;4.50;99.90
52899;DHT22;38763;53.096;6.062;2023-04-08T01:33:51;4.50;99.90
52899;DHT22;38763;53.096;6.062;2023-04-08T01:36:19;4.50;99.90
52899;DHT22;38763;53.096;6.062;2023-04-08T01:38:46;4.50;99.90
52899;DHT22;38763;53.096;6.062;2023-04-08T01:41:12;4.50;99.90
52899;DHT22;38763;53.096;6.062;2023-04-08T01:43:39;4.40;99.90
52899;DHT22;38763;53.096;6.062;2023-04-08T01:46:07;4.40;99.90
52899;DHT22;38763;53.096;6.062;2023-04-08T01:48:35;4.40;99.90
52899;DHT22;38763;53.096;6.062;2023-04-08T01:51:01;4.30;99.90
52899;DHT22;38763;53.096;6.062;2023-04-08T01:53:28;4.30;99.90
52899;DHT22;38763;53.096;6.062;2023-04-08T01:56:00;4.30;99.90
52899;DHT22;38763;53.096;6.062;2023-04-08T01:58:32;4.20;99.90
52899;DHT22;38763;53.096;6.062;2023-04-08T02:01:02;4.30;99.90
52899;DHT22;38763;53.096;6.062;2023-04-08T02:03:29;4.20;99.90
52899;DHT22;38763;53.096;6.062;2023-04-08T02:05:55;4.10;99.90
52899;DHT22;38763;53.096;6.062;2023-04-08T02:08:21;4.10;99.90
52899;DHT22;38763;53.096;6.062;2023-04-08T02:10:46;4.20;99.90
52899;DHT22;38763;53.096;6.062;2023-04-08T02:13:12;4.10;99.90
52899;DHT22;38763;53.096;6.062;2023-04-08T02:15:42;4.00;99.90
52899;DHT22;38763;53.096;6.062;2023-04-08T02:18:16;4.00;99.90
52899;DHT22;38763;53.096;6.062;2023-04-08T02:20:50;4.00;99.90
52899;DHT22;38763;53.096;6.062;2023-04-08T02:23:23;3.90;99.90
52899;DHT22;38763;53.096;6.062;2023-04-08T02:25:52;3.90;99.90
52899;DHT22;38763;53.096;6.062;2023-04-08T02:28:20;3.90;99.90
52899;DHT22;38763;53.096;6.062;2023-04-08T02:30:49;3.80;99.90
52899;DHT22;38763;53.096;6.062;2023-04-08T02:33:19;3.80;99.90
52899;DHT22;38763;53.096;6.062;2023-04-08T02:35:46;3.80;99.90
52899;DHT22;38763;53.096;6.062;2023-04-08T02:38:12;3.80;99.90
52899;DHT22;38763;53.096;6.062;2023-04-08T02:40:38;3.70;99.90
52899;DHT22;38763;53.096;6.062;2023-04-08T02:43:04;3.80;99.90
52899;DHT22;38763;53.096;6.062;2023-04-08T02:45:31;3.70;99.90
52899;DHT22;38763;53.096;6.062;2023-04-08T02:47:59;3.70;99.90
52899;DHT22;38763;53.096;6.062;2023-04-08T02:50:25;3.70;99.90
52899;DHT22;38763;53.096;6.062;2023-04-08T02:52:50;3.70;99.90
52899;DHT22;38763;53.096;6.062;2023-04-08T02:55:16;3.70;99.90
52899;DHT22;38763;53.096;6.062;2023-04-08T02:57:42;3.60;99.90
52899;DHT22;38763;53.096;6.062;2023-04-08T03:00:08;3.60;99.90
52899;DHT22;38763;53.096;6.062;2023-04-08T03:02:34;3.60;99.90
52899;DHT22;38763;53.096;6.062;2023-04-08T03:05:00;3.60;99.90
52899;DHT22;38763;53.096;6.062;2023-04-08T03:07:26;3.60;99.90
52899;DHT22;38763;53.096;6.062;2023-04-08T03:09:53;3.60;99.90
52899;DHT22;38763;53.096;6.062;2023-04-08T03:12:20;3.60;99.90
52899;DHT22;38763;53.096;6.062;2023-04-08T03:14:46;3.60;99.90
52899;DHT22;38763;53.096;6.062;2023-04-08T03:17:12;3.60;99.90
52899;DHT22;38763;53.096;6.062;2023-04-08T03:19:37;3.50;99.90
52899;DHT22;38763;53.096;6.062;2023-04-08T03:22:03;3.50;99.90
52899;DHT22;38763;53.096;6.062;2023-04-08T03:24:29;3.50;99.90
52899;DHT22;38763;53.096;6.062;2023-04-08T03:26:54;3.50;99.90
52899;DHT22;38763;53.096;6.062;2023-04-08T03:29:20;3.50;99.90
52899;DHT22;38763;53.096;6.062;2023-04-08T03:31:46;3.50;99.90
52899;DHT22;38763;53.096;6.062;2023-04-08T03:34:11;3.40;99.90
52899;DHT22;38763;53.096;6.062;2023-04-08T03:36:37;3.40;99.90
52899;DHT22;38763;53.096;6.062;2023-04-08T03:39:03;3.40;99.90
52899;DHT22;38763;53.096;6.062;2023-04-08T03:41:28;3.30;99.90
52899;DHT22;38763;53.096;6.062;2023-04-08T03:43:55;3.40;99.90
52899;DHT22;38763;53.096;6.062;2023-04-08T03:46:20;3.30;99.90
52899;DHT22;38763;53.096;6.062;2023-04-08T03:48:47;3.30;99.90
52899;DHT22;38763;53.096;6.062;2023-04-08T03:51:13;3.30;99.90
52899;DHT22;38763;53.096;6.062;2023-04-08T03:53:38;3.30;99.90
52899;DHT22;38763;53.096;6.062;2023-04-08T03:56:05;3.30;99.90
52899;DHT22;38763;53.096;6.062;2023-04-08T03:58:30;3.20;99.90
52899;DHT22;38763;53.096;6.062;2023-04-08T04:00:57;3.20;99.90
52899;DHT22;38763;53.096;6.062;2023-04-08T04:03:22;3.20;99.90
52899;DHT22;38763;53.096;6.062;2023-04-08T04:05:49;3.20;99.90
52899;DHT22;38763;53.096;6.062;2023-04-08T04:08:15;3.20;99.90
52899;DHT22;38763;53.096;6.062;2023-04-08T04:10:40;3.20;99.90
52899;DHT22;38763;53.096;6.062;2023-04-08T04:13:06;3.30;99.90
52899;DHT22;38763;53.096;6.062;2023-04-08T04:15:32;3.20;99.90
52899;DHT22;38763;53.096;6.062;2023-04-08T04:17:57;3.20;99.90
52899;DHT22;38763;53.096;6.062;2023-04-08T04:20:23;3.10;99.90
52899;DHT22;38763;53.096;6.062;2023-04-08T04:22:50;3.10;99.90
52899;DHT22;38763;53.096;6.062;2023-04-08T04:25:16;3.10;99.90
52899;DHT22;38763;53.096;6.062;2023-04-08T04:27:42;3.10;99.90
52899;DHT22;38763;53.096;6.062;2023-04-08T04:30:07;3.10;99.90
52899;DHT22;38763;53.096;6.062;2023-04-08T04:32:34;3.10;99.90
52899;DHT22;38763;53.096;6.062;2023-04-08T04:34:59;3.10;99.90
52899;DHT22;38763;53.096;6.062;2023-04-08T04:37:25;3.10;99.90
52899;DHT22;38763;53.096;6.062;2023-04-08T04:39:51;3.00;99.90
52899;DHT22;38763;53.096;6.062;2023-04-08T04:42:17;3.10;99.90
52899;DHT22;38763;53.096;6.062;2023-04-08T04:44:43;3.10;99.90
52899;DHT22;38763;53.096;6.062;2023-04-08T04:47:09;3.00;99.90
52899;DHT22;38763;53.096;6.062;2023-04-08T04:49:34;3.00;99.90
52899;DHT22;38763;53.096;6.062;2023-04-08T04:52:00;3.00;99.90
52899;DHT22;38763;53.096;6.062;2023-04-08T04:54:25;3.10;99.90
52899;DHT22;38763;53.096;6.062;2023-04-08T04:56:51;3.10;99.90
52899;DHT22;38763;53.096;6.062;2023-04-08T04:59:17;3.00;99.90
52899;DHT22;38763;53.096;6.062;2023-04-08T05:01:42;2.90;99.90
52899;DHT22;38763;53.096;6.062;2023-04-08T05:04:08;3.00;99.90
52899;DHT22;38763;53.096;6.062;2023-04-08T05:06:33;2.90;99.90
52899;DHT22;38763;53.096;6.062;2023-04-08T05:08:59;2.80;99.90
52899;DHT22;38763;53.096;6.062;2023-04-08T05:11:25;2.90;99.90
52899;DHT22;38763;53.096;6.062;2023-04-08T05:13:51;2.90;99.90
52899;DHT22;38763;53.096;6.062;2023-04-08T05:16:16;2.90;99.90
52899;DHT22;38763;53.096;6.062;2023-04-08T05:18:42;2.80;99.90
52899;DHT22;38763;53.096;6.062;2023-04-08T05:21:08;2.80;99.90
52899;DHT22;38763;53.096;6.062;2023-04-08T05:23:34;2.80;99.90
52899;DHT22;38763;53.096;6.062;2023-04-08T05:26:00;2.80;99.90
52899;DHT22;38763;53.096;6.062;2023-04-08T05:28:25;2.90;99.90
52899;DHT22;38763;53.096;6.062;2023-04-08T05:30:52;2.90;99.90
52899;DHT22;38763;53.096;6.062;2023-04-08T05:33:18;2.90;99.90
52899;DHT22;38763;53.096;6.062;2023-04-08T05:35:44;2.90;99.90
52899;DHT22;38763;53.096;6.062;2023-04-08T05:38:10;2.90;99.90
52899;DHT22;38763;53.096;6.062;2023-04-08T05:40:36;2.90;99.90
52899;DHT22;38763;53.096;6.062;2023-04-08T05:43:02;3.00;99.90
52899;DHT22;38763;53.096;6.062;2023-04-08T05:45:28;3.00;99.90
52899;DHT22;38763;53.096;6.062;2023-04-08T05:47:53;3.00;99.90
52899;DHT22;38763;53.096;6.062;2023-04-08T05:50:19;3.10;99.90
52899;DHT22;38763;53.096;6.062;2023-04-08T05:52:45;3.10;99.90
52899;DHT22;38763;53.096;6.062;2023-04-08T05:55:11;3.20;99.90
52899;DHT22;38763;53.096;6.062;2023-04-08T05:57:37;3.20;99.90
52899;DHT22;38763;53.096;6.062;2023-04-08T06:00:04;3.20;99.90
52899;DHT22;38763;53.096;6.062;2023-04-08T06:02:30;3.30;99.90
52899;DHT22;38763;53.096;6.062;2023-04-08T06:04:56;3.30;99.90
52899;DHT22;38763;53.096;6.062;2023-04-08T06:07:22;3.30;99.90
52899;DHT22;38763;53.096;6.062;2023-04-08T06:09:47;3.30;99.90
52899;DHT22;38763;53.096;6.062;2023-04-08T06:12:13;3.30;99.90
52899;DHT22;38763;53.096;6.062;2023-04-08T06:14:38;3.30;99.90
52899;DHT22;38763;53.096;6.062;2023-04-08T06:17:04;3.30;99.90
52899;DHT22;38763;53.096;6.062;2023-04-08T06:19:30;3.40;99.90
52899;DHT22;38763;53.096;6.062;2023-04-08T06:21:56;3.40;99.90
52899;DHT22;38763;53.096;6.062;2023-04-08T06:24:26;3.60;99.90
52899;DHT22;38763;53.096;6.062;2023-04-08T06:26:54;3.60;99.90
52899;DHT22;38763;53.096;6.062;2023-04-08T06:29:23;3.70;99.90
52899;DHT22;38763;53.096;6.062;2023-04-08T06:31:49;3.80;99.90
52899;DHT22;38763;53.096;6.062;2023-04-08T06:34:15;3.90;99.90
52899;DHT22;38763;53.096;6.062;2023-04-08T06:36:41;4.00;99.90
52899;DHT22;38763;53.096;6.062;2023-04-08T06:39:06;4.10;99.90
52899;DHT22;38763;53.096;6.062;2023-04-08T06:41:32;4.20;99.90
52899;DHT22;38763;53.096;6.062;2023-04-08T06:43:58;4.30;99.90
52899;DHT22;38763;53.096;6.062;2023-04-08T06:46:24;4.30;99.90
52899;DHT22;38763;53.096;6.062;2023-04-08T06:48:50;4.50;99.90
52899;DHT22;38763;53.096;6.062;2023-04-08T06:51:15;4.60;99.90
52899;DHT22;38763;53.096;6.062;2023-04-08T06:53:41;4.80;99.90
52899;DHT22;38763;53.096;6.062;2023-04-08T06:56:06;4.80;99.90
52899;DHT22;38763;53.096;6.062;2023-04-08T06:58:32;4.90;99.90
52899;DHT22;38763;53.096;6.062;2023-04-08T07:01:01;5.00;99.90
52899;DHT22;38763;53.096;6.062;2023-04-08T07:03:27;5.00;99.90
52899;DHT22;38763;53.096;6.062;2023-04-08T07:05:53;5.10;99.90
52899;DHT22;38763;53.096;6.062;2023-04-08T07:08:19;5.10;99.90
52899;DHT22;38763;53.096;6.062;2023-04-08T07:10:44;5.10;99.90
52899;DHT22;38763;53.096;6.062;2023-04-08T07:13:10;5.10;99.90
52899;DHT22;38763;53.096;6.062;2023-04-08T07:15:36;5.20;99.90
52899;DHT22;38763;53.096;6.062;2023-04-08T07:18:02;5.30;99.90
52899;DHT22;38763;53.096;6.062;2023-04-08T07:20:29;5.40;99.90
52899;DHT22;38763;53.096;6.062;2023-04-08T07:22:55;5.60;99.90
52899;DHT22;38763;53.096;6.062;2023-04-08T07:25:20;5.70;99.90
52899;DHT22;38763;53.096;6.062;2023-04-08T07:27:46;5.70;99.90
52899;DHT22;38763;53.096;6.062;2023-04-08T07:30:12;5.70;99.90
52899;DHT22;38763;53.096;6.062;2023-04-08T07:32:37;5.80;99.90
52899;DHT22;38763;53.096;6.062;2023-04-08T07:35:03;5.80;99.90
52899;DHT22;38763;53.096;6.062;2023-04-08T07:37:29;5.90;99.90
52899;DHT22;38763;53.096;6.062;2023-04-08T07:39:55;5.90;99.90
52899;DHT22;38763;53.096;6.062;2023-04-08T07:42:20;6.00;99.90
52899;DHT22;38763;53.096;6.062;2023-04-08T07:44:46;6.00;99.90
52899;DHT22;38763;53.096;6.062;2023-04-08T07:47:12;6.00;99.90
52899;DHT22;38763;53.096;6.062;2023-04-08T07:49:38;6.10;99.90
52899;DHT22;38763;53.096;6.062;2023-04-08T07:52:04;6.20;99.90
52899;DHT22;38763;53.096;6.062;2023-04-08T07:54:30;6.30;99.90
52899;DHT22;38763;53.096;6.062;2023-04-08T07:56:58;6.40;99.90
52899;DHT22;38763;53.096;6.062;2023-04-08T07:59:24;6.50;99.90
52899;DHT22;38763;53.096;6.062;2023-04-08T08:01:50;6.60;99.90
52899;DHT22;38763;53.096;6.062;2023-04-08T08:04:16;6.70;99.90
52899;DHT22;38763;53.096;6.062;2023-04-08T08:06:42;6.90;99.90
52899;DHT22;38763;53.096;6.062;2023-04-08T08:09:08;7.00;99.90
52899;DHT22;38763;53.096;6.062;2023-04-08T08:11:33;7.10;99.90
52899;DHT22;38763;53.096;6.062;2023-04-08T08:13:59;7.20;99.90
52899;DHT22;38763;53.096;6.062;2023-04-08T08:16:28;7.30;99.90
52899;DHT22;38763;53.096;6.062;2023-04-08T08:18:54;7.30;99.90
52899;DHT22;38763;53.096;6.062;2023-04-08T08:21:19;7.50;99.90
52899;DHT22;38763;53.096;6.062;2023-04-08T08:23:45;7.50;99.90
52899;DHT22;38763;53.096;6.062;2023-04-08T08:26:11;7.70;99.90
52899;DHT22;38763;53.096;6.062;2023-04-08T08:28:37;7.80;99.90
52899;DHT22;38763;53.096;6.062;2023-04-08T08:31:03;7.70;99.90
52899;DHT22;38763;53.096;6.062;2023-04-08T08:33:30;7.70;99.90
52899;DHT22;38763;53.096;6.062;2023-04-08T08:35:56;7.60;99.90
52899;DHT22;38763;53.096;6.062;2023-04-08T08:38:23;7.80;99.90
52899;DHT22;38763;53.096;6.062;2023-04-08T08:40:59;7.70;99.90
52899;DHT22;38763;53.096;6.062;2023-04-08T08:43:26;7.90;99.90
52899;DHT22;38763;53.096;6.062;2023-04-08T08:45:52;7.90;99.90
52899;DHT22;38763;53.096;6.062;2023-04-08T08:48:18;8.00;99.90
52899;DHT22;38763;53.096;6.062;2023-04-08T08:50:44;8.10;99.90
52899;DHT22;38763;53.096;6.062;2023-04-08T08:53:10;8.20;99.90
52899;DHT22;38763;53.096;6.062;2023-04-08T08:55:36;8.20;99.90
52899;DHT22;38763;53.096;6.062;2023-04-08T08:58:05;8.20;99.90
52899;DHT22;38763;53.096;6.062;2023-04-08T09:00:39;8.20;99.90
52899;DHT22;38763;53.096;6.062;2023-04-08T09:03:17;8.10;99.90
52899;DHT22;38763;53.096;6.062;2023-04-08T09:05:57;8.30;99.90
52899;DHT22;38763;53.096;6.062;2023-04-08T09:08:29;8.10;99.90
52899;DHT22;38763;53.096;6.062;2023-04-08T09:13:51;8.50;99.90
52899;DHT22;38763;53.096;6.062;2023-04-08T09:16:18;8.60;99.90
52899;DHT22;38763;53.096;6.062;2023-04-08T09:18:45;8.90;99.90
52899;DHT22;38763;53.096;6.062;2023-04-08T09:21:16;9.10;99.90
52899;DHT22;38763;53.096;6.062;2023-04-08T09:23:46;9.10;99.90
52899;DHT22;38763;53.096;6.062;2023-04-08T09:28:38;9.20;99.90
52899;DHT22;38763;53.096;6.062;2023-04-08T09:31:21;9.30;99.90
52899;DHT22;38763;53.096;6.062;2023-04-08T09:33:51;9.30;99.90
52899;DHT22;38763;53.096;6.062;2023-04-08T09:36:17;8.80;99.90
52899;DHT22;38763;53.096;6.062;2023-04-08T09:38:44;8.90;99.90
52899;DHT22;38763;53.096;6.062;2023-04-08T09:41:14;8.80;99.90
52899;DHT22;38763;53.096;6.062;2023-04-08T09:43:47;9.00;99.90
52899;DHT22;38763;53.096;6.062;2023-04-08T09:46:16;9.20;99.90
52899;DHT22;38763;53.096;6.062;2023-04-08T09:48:55;9.30;99.90
52899;DHT22;38763;53.096;6.062;2023-04-08T09:51:23;9.40;99.90
52899;DHT22;38763;53.096;6.062;2023-04-08T09:53:58;8.90;99.90
52899;DHT22;38763;53.096;6.062;2023-04-08T09:56:28;8.90;99.90
52899;DHT22;38763;53.096;6.062;2023-04-08T09:58:58;9.10;99.90
52899;DHT22;38763;53.096;6.062;2023-04-08T10:01:38;9.00;99.90
52899;DHT22;38763;53.096;6.062;2023-04-08T10:04:11;9.10;99.90
52899;DHT22;38763;53.096;6.062;2023-04-08T10:06:37;8.80;99.90
52899;DHT22;38763;53.096;6.062;2023-04-08T10:09:04;8.70;99.90
52899;DHT22;38763;53.096;6.062;2023-04-08T10:11:32;8.80;99.90
52899;DHT22;38763;53.096;6.062;2023-04-08T10:13:58;8.70;99.90
52899;DHT22;38763;53.096;6.062;2023-04-08T10:16:25;8.60;99.90
52899;DHT22;38763;53.096;6.062;2023-04-08T10:18:52;8.40;99.90
52899;DHT22;38763;53.096;6.062;2023-04-08T10:21:38;8.50;99.90
52899;DHT22;38763;53.096;6.062;2023-04-08T10:24:10;8.60;99.90
52899;DHT22;38763;53.096;6.062;2023-04-08T10:26:43;8.60;99.90
52899;DHT22;38763;53.096;6.062;2023-04-08T10:31:45;8.80;99.90
52899;DHT22;38763;53.096;6.062;2023-04-08T10:34:18;8.70;99.90
52899;DHT22;38763;53.096;6.062;2023-04-08T10:36:44;8.50;99.90
52899;DHT22;38763;53.096;6.062;2023-04-08T10:39:10;8.50;99.90
52899;DHT22;38763;53.096;6.062;2023-04-08T10:41:46;8.50;99.90
52899;DHT22;38763;53.096;6.062;2023-04-08T10:44:24;8.60;99.90
52899;DHT22;38763;53.096;6.062;2023-04-08T10:46:51;8.70;99.90
52899;DHT22;38763;53.096;6.062;2023-04-08T10:49:17;8.80;99.90
52899;DHT22;38763;53.096;6.062;2023-04-08T10:51:43;8.80;99.90
52899;DHT22;38763;53.096;6.062;2023-04-08T10:54:10;8.80;99.90
52899;DHT22;38763;53.096;6.062;2023-04-08T10:56:44;8.60;99.90
52899;DHT22;38763;53.096;6.062;2023-04-08T10:59:10;8.60;99.90
52899;DHT22;38763;53.096;6.062;2023-04-08T11:01:39;8.80;99.90
52899;DHT22;38763;53.096;6.062;2023-04-08T11:04:13;8.70;99.90
52899;DHT22;38763;53.096;6.062;2023-04-08T11:06:38;8.80;99.90
52899;DHT22;38763;53.096;6.062;2023-04-08T11:09:06;8.80;99.90
52899;DHT22;38763;53.096;6.062;2023-04-08T11:11:33;8.70;99.90
52899;DHT22;38763;53.096;6.062;2023-04-08T11:13:59;8.70;99.90
52899;DHT22;38763;53.096;6.062;2023-04-08T11:16:25;8.80;99.90
52899;DHT22;38763;53.096;6.062;2023-04-08T11:18:52;8.80;99.90
52899;DHT22;38763;53.096;6.062;2023-04-08T11:21:18;8.90;99.90
52899;DHT22;38763;53.096;6.062;2023-04-08T11:23:47;8.90;99.90
52899;DHT22;38763;53.096;6.062;2023-04-08T11:26:14;8.90;99.90
52899;DHT22;38763;53.096;6.062;2023-04-08T11:28:40;8.90;99.90
52899;DHT22;38763;53.096;6.062;2023-04-08T11:31:06;8.90;99.90
52899;DHT22;38763;53.096;6.062;2023-04-08T11:33:33;9.00;99.90
52899;DHT22;38763;53.096;6.062;2023-04-08T11:36:01;9.10;99.90
52899;DHT22;38763;53.096;6.062;2023-04-08T11:38:28;9.20;99.90
52899;DHT22;38763;53.096;6.062;2023-04-08T11:40:55;9.30;99.90
52899;DHT22;38763;53.096;6.062;2023-04-08T11:43:21;9.30;99.90
52899;DHT22;38763;53.096;6.062;2023-04-08T11:45:47;9.30;99.90
52899;DHT22;38763;53.096;6.062;2023-04-08T11:48:14;9.20;99.90
52899;DHT22;38763;53.096;6.062;2023-04-08T11:50:42;9.40;99.90
52899;DHT22;38763;53.096;6.062;2023-04-08T11:53:20;9.40;99.90
52899;DHT22;38763;53.096;6.062;2023-04-08T11:55:47;9.60;99.90
52899;DHT22;38763;53.096;6.062;2023-04-08T11:58:13;9.70;99.90
52899;DHT22;38763;53.096;6.062;2023-04-08T12:00:40;9.80;99.90
52899;DHT22;38763;53.096;6.062;2023-04-08T12:03:06;9.70;99.90
52899;DHT22;38763;53.096;6.062;2023-04-08T12:05:32;9.80;99.90
52899;DHT22;38763;53.096;6.062;2023-04-08T12:07:58;9.80;99.90
52899;DHT22;38763;53.096;6.062;2023-04-08T12:10:24;9.80;99.90
52899;DHT22;38763;53.096;6.062;2023-04-08T12:12:50;9.80;99.90
52899;DHT22;38763;53.096;6.062;2023-04-08T12:15:16;9.80;99.90
52899;DHT22;38763;53.096;6.062;2023-04-08T12:17:42;9.90;99.90
52899;DHT22;38763;53.096;6.062;2023-04-08T12:20:11;10.00;99.90
52899;DHT22;38763;53.096;6.062;2023-04-08T12:22:37;10.00;99.90
52899;DHT22;38763;53.096;6.062;2023-04-08T12:25:03;9.90;99.90
52899;DHT22;38763;53.096;6.062;2023-04-08T12:27:29;10.00;99.90
52899;DHT22;38763;53.096;6.062;2023-04-08T12:29:58;9.90;99.90
52899;DHT22;38763;53.096;6.062;2023-04-08T12:32:23;9.80;99.90
52899;DHT22;38763;53.096;6.062;2023-04-08T12:34:50;9.80;99.90
52899;DHT22;38763;53.096;6.062;2023-04-08T12:37:16;9.80;99.90
52899;DHT22;38763;53.096;6.062;2023-04-08T12:39:41;9.80;99.90
52899;DHT22;38763;53.096;6.062;2023-04-08T12:42:07;9.80;99.90
52899;DHT22;38763;53.096;6.062;2023-04-08T12:44:33;9.80;99.90
52899;DHT22;38763;53.096;6.062;2023-04-08T12:46:58;9.80;99.90
52899;DHT22;38763;53.096;6.062;2023-04-08T12:49:24;9.90;99.90
52899;DHT22;38763;53.096;6.062;2023-04-08T12:51:50;9.90;99.90
52899;DHT22;38763;53.096;6.062;2023-04-08T12:54:16;9.90;99.90
52899;DHT22;38763;53.096;6.062;2023-04-08T12:56:42;9.80;99.90
52899;DHT22;38763;53.096;6.062;2023-04-08T12:59:08;9.90;99.90
52899;DHT22;38763;53.096;6.062;2023-04-08T13:01:34;9.90;99.90
52899;DHT22;38763;53.096;6.062;2023-04-08T13:04:00;9.90;99.90
52899;DHT22;38763;53.096;6.062;2023-04-08T13:06:26;9.90;99.90
52899;DHT22;38763;53.096;6.062;2023-04-08T13:08:53;9.80;99.90
52899;DHT22;38763;53.096;6.062;2023-04-08T13:11:18;9.80;99.90
52899;DHT22;38763;53.096;6.062;2023-04-08T13:13:44;9.90;99.90
52899;DHT22;38763;53.096;6.062;2023-04-08T13:16:12;9.90;99.90
52899;DHT22;38763;53.096;6.062;2023-04-08T13:18:38;10.00;99.90
52899;DHT22;38763;53.096;6.062;2023-04-08T13:21:06;9.90;99.90
52899;DHT22;38763;53.096;6.062;2023-04-08T13:23:31;10.00;99.90
52899;DHT22;38763;53.096;6.062;2023-04-08T13:25:57;10.10;99.90
52899;DHT22;38763;53.096;6.062;2023-04-08T13:28:23;10.10;99.90
52899;DHT22;38763;53.096;6.062;2023-04-08T13:30:48;10.10;99.90
52899;DHT22;38763;53.096;6.062;2023-04-08T13:33:14;10.10;99.90
52899;DHT22;38763;53.096;6.062;2023-04-08T13:35:40;10.00;99.90
52899;DHT22;38763;53.096;6.062;2023-04-08T13:38:05;10.00;99.90
52899;DHT22;38763;53.096;6.062;2023-04-08T13:40:31;10.00;99.90
52899;DHT22;38763;53.096;6.062;2023-04-08T13:42:57;10.00;99.90
52899;DHT22;38763;53.096;6.062;2023-04-08T13:45:23;10.00;99.90
52899;DHT22;38763;53.096;6.062;2023-04-08T13:47:49;10.00;99.90
52899;DHT22;38763;53.096;6.062;2023-04-08T13:50:14;10.10;99.90
52899;DHT22;38763;53.096;6.062;2023-04-08T13:52:40;10.20;99.90
52899;DHT22;38763;53.096;6.062;2023-04-08T13:55:06;10.20;99.90
52899;DHT22;38763;53.096;6.062;2023-04-08T13:57:32;10.30;99.90
52899;DHT22;38763;53.096;6.062;2023-04-08T13:59:58;10.20;99.90
52899;DHT22;38763;53.096;6.062;2023-04-08T14:02:23;10.20;99.90
52899;DHT22;38763;53.096;6.062;2023-04-08T14:04:49;10.10;99.90
52899;DHT22;38763;53.096;6.062;2023-04-08T14:07:15;10.20;99.90
52899;DHT22;38763;53.096;6.062;2023-04-08T14:09:40;10.10;99.90
52899;DHT22;38763;53.096;6.062;2023-04-08T14:12:06;10.00;99.90
52899;DHT22;38763;53.096;6.062;2023-04-08T14:14:31;10.00;99.90
52899;DHT22;38763;53.096;6.062;2023-04-08T14:16:57;10.00;99.90
52899;DHT22;38763;53.096;6.062;2023-04-08T14:19:23;10.10;99.90
52899;DHT22;38763;53.096;6.062;2023-04-08T14:21:48;10.20;99.90
52899;DHT22;38763;53.096;6.062;2023-04-08T14:24:15;10.20;99.90
52899;DHT22;38763;53.096;6.062;2023-04-08T14:26:40;10.20;99.90
52899;DHT22;38763;53.096;6.062;2023-04-08T14:29:07;10.20;99.90
52899;DHT22;38763;53.096;6.062;2023-04-08T14:31:33;10.20;99.90
52899;DHT22;38763;53.096;6.062;2023-04-08T14:33:59;10.20;99.90
52899;DHT22;38763;53.096;6.062;2023-04-08T14:36:26;10.30;99.90
52899;DHT22;38763;53.096;6.062;2023-04-08T14:38:56;10.30;99.90
52899;DHT22;38763;53.096;6.062;2023-04-08T14:41:22;10.40;99.90
52899;DHT22;38763;53.096;6.062;2023-04-08T14:43:48;10.40;99.90
52899;DHT22;38763;53.096;6.062;2023-04-08T14:46:13;10.40;99.90
52899;DHT22;38763;53.096;6.062;2023-04-08T14:48:39;10.50;99.90
52899;DHT22;38763;53.096;6.062;2023-04-08T14:51:05;10.50;99.90
52899;DHT22;38763;53.096;6.062;2023-04-08T14:53:31;10.40;99.90
52899;DHT22;38763;53.096;6.062;2023-04-08T14:55:58;10.50;99.90
52899;DHT22;38763;53.096;6.062;2023-04-08T14:58:23;10.40;99.90
52899;DHT22;38763;53.096;6.062;2023-04-08T15:00:49;10.40;99.90
52899;DHT22;38763;53.096;6.062;2023-04-08T15:03:15;10.30;99.90
52899;DHT22;38763;53.096;6.062;2023-04-08T15:05:42;10.30;99.90
52899;DHT22;38763;53.096;6.062;2023-04-08T15:08:08;10.40;99.90
52899;DHT22;38763;53.096;6.062;2023-04-08T15:10:33;10.40;99.90
52899;DHT22;38763;53.096;6.062;2023-04-08T15:12:59;10.50;99.90
52899;DHT22;38763;53.096;6.062;2023-04-08T15:15:25;10.50;99.90
52899;DHT22;38763;53.096;6.062;2023-04-08T15:17:51;10.50;99.90
52899;DHT22;38763;53.096;6.062;2023-04-08T15:20:17;10.50;99.90
52899;DHT22;38763;53.096;6.062;2023-04-08T15:22:45;10.50;99.90
52899;DHT22;38763;53.096;6.062;2023-04-08T15:25:11;10.50;99.90
52899;DHT22;38763;53.096;6.062;2023-04-08T15:27:37;10.50;99.90
52899;DHT22;38763;53.096;6.062;2023-04-08T15:30:06;10.70;99.90
52899;DHT22;38763;53.096;6.062;2023-04-08T15:32:32;10.70;99.90
52899;DHT22;38763;53.096;6.062;2023-04-08T15:34:59;10.60;99.90
52899;DHT22;38763;53.096;6.062;2023-04-08T15:37:25;10.60;99.90
52899;DHT22;38763;53.096;6.062;2023-04-08T15:39:51;10.50;99.90
52899;DHT22;38763;53.096;6.062;2023-04-08T15:42:18;10.60;99.90
52899;DHT22;38763;53.096;6.062;2023-04-08T15:44:44;10.70;99.90
52899;DHT22;38763;53.096;6.062;2023-04-08T15:47:10;10.80;99.90
52899;DHT22;38763;53.096;6.062;2023-04-08T15:49:36;10.70;99.90
52899;DHT22;38763;53.096;6.062;2023-04-08T15:52:03;10.70;99.90